createdAt,value
2018-08-28T00:00:12.701Z,1013.14
2018-08-28T00:01:12.684Z,1013.16
2018-08-28T00:02:12.623Z,1013.15
2018-08-28T00:03:12.585Z,1013.12
2018-08-28T00:04:12.538Z,1013.16
2018-08-28T00:05:12.501Z,1013.16
2018-08-28T00:06:12.484Z,1013.15
2018-08-28T00:07:12.425Z,1013.14
2018-08-28T00:08:12.392Z,1013.15
2018-08-28T00:09:12.357Z,1013.15
2018-08-28T00:10:12.311Z,1013.15
2018-08-28T00:11:12.292Z,1013.17
2018-08-28T00:12:12.240Z,1013.17
2018-08-28T00:13:12.201Z,1013.17
2018-08-28T00:14:12.163Z,1013.19
2018-08-28T00:15:12.124Z,1013.19
2018-08-28T00:16:12.113Z,1013.22
2018-08-28T00:17:12.120Z,1013.21
2018-08-28T00:18:12.003Z,1013.18
2018-08-28T00:19:11.967Z,1013.17
2018-08-28T00:20:11.936Z,1013.18
2018-08-28T00:21:11.895Z,1013.22
2018-08-28T00:22:11.886Z,1013.19
2018-08-28T00:23:11.818Z,1013.22
2018-08-28T00:24:11.775Z,1013.22
2018-08-28T00:25:11.735Z,1013.20
2018-08-28T00:26:11.703Z,1013.24
2018-08-28T00:27:11.689Z,1013.21
2018-08-28T00:28:11.624Z,1013.22
2018-08-28T00:29:11.579Z,1013.22
2018-08-28T00:30:11.541Z,1013.25
2018-08-28T00:31:11.503Z,1013.24
2018-08-28T00:32:11.500Z,1013.28
2018-08-28T00:33:11.432Z,1013.28
2018-08-28T00:34:11.396Z,1013.31
2018-08-28T00:35:11.359Z,1013.30
2018-08-28T00:36:11.308Z,1013.31
2018-08-28T00:37:11.276Z,1013.34
2018-08-28T00:38:11.258Z,1013.32
2018-08-28T00:39:11.197Z,1013.30
2018-08-28T00:40:11.166Z,1013.32
2018-08-28T00:41:11.127Z,1013.35
2018-08-28T00:42:11.104Z,1013.33
2018-08-28T00:43:11.041Z,1013.34
2018-08-28T00:44:11.013Z,1013.33
2018-08-28T00:45:10.974Z,1013.37
2018-08-28T00:46:10.934Z,1013.35
2018-08-28T00:47:10.923Z,1013.37
2018-08-28T00:48:10.849Z,1013.36
2018-08-28T00:49:10.814Z,1013.35
2018-08-28T00:50:10.775Z,1013.35
2018-08-28T00:51:10.734Z,1013.37
2018-08-28T00:52:10.729Z,1013.39
2018-08-28T00:53:10.687Z,1013.36
2018-08-28T00:54:10.626Z,1013.37
2018-08-28T00:55:21.037Z,1013.39
2018-08-28T00:56:10.552Z,1013.39
2018-08-28T00:57:10.513Z,1013.40
2018-08-28T00:58:10.492Z,1013.44
2018-08-28T00:59:10.453Z,1013.46
2018-08-28T01:00:10.404Z,1013.44
2018-08-28T01:01:10.375Z,1013.46
2018-08-28T01:02:10.405Z,1013.49
2018-08-28T01:03:10.308Z,1013.48
2018-08-28T01:04:10.246Z,1013.44
2018-08-28T01:05:10.204Z,1013.47
2018-08-28T01:06:10.165Z,1013.47
2018-08-28T01:07:10.122Z,1013.45
2018-08-28T01:08:10.115Z,1013.46
2018-08-28T01:09:10.041Z,1013.45
2018-08-28T01:10:10.011Z,1013.45
2018-08-28T01:11:09.975Z,1013.45
2018-08-28T01:12:09.926Z,1013.45
2018-08-28T01:13:09.888Z,1013.41
2018-08-28T01:14:09.883Z,1013.42
2018-08-28T01:15:09.819Z,1013.44
2018-08-28T01:16:09.782Z,1013.43
2018-08-28T01:17:09.739Z,1013.40
2018-08-28T01:18:09.696Z,1013.41
2018-08-28T01:19:09.685Z,1013.39
2018-08-28T01:20:09.620Z,1013.42
2018-08-28T01:21:09.581Z,1013.42
2018-08-28T01:22:09.549Z,1013.39
2018-08-28T01:23:09.517Z,1013.43
2018-08-28T01:24:09.496Z,1013.45
2018-08-28T01:25:09.434Z,1013.43
2018-08-28T01:26:09.388Z,1013.43
2018-08-28T01:27:09.351Z,1013.47
2018-08-28T01:28:09.319Z,1013.46
2018-08-28T01:29:09.281Z,1013.47
2018-08-28T01:30:09.261Z,1013.47
2018-08-28T01:31:09.196Z,1013.47
2018-08-28T01:32:09.157Z,1013.45
2018-08-28T01:33:09.122Z,1013.48
2018-08-28T01:34:09.085Z,1013.49
2018-08-28T01:35:09.076Z,1013.51
2018-08-28T01:36:09.009Z,1013.48
2018-08-28T01:37:08.982Z,1013.50
2018-08-28T01:38:08.927Z,1013.47
2018-08-28T01:39:08.891Z,1013.47
2018-08-28T01:40:08.869Z,1013.46
2018-08-28T01:41:08.808Z,1013.47
2018-08-28T01:42:08.777Z,1013.44
2018-08-28T01:43:08.739Z,1013.49
2018-08-28T01:44:08.697Z,1013.46
2018-08-28T01:45:08.685Z,1013.45
2018-08-28T01:46:08.624Z,1013.46
2018-08-28T01:47:08.586Z,1013.44
2018-08-28T01:48:08.547Z,1013.48
2018-08-28T01:49:08.510Z,1013.47
2018-08-28T01:50:08.465Z,1013.46
2018-08-28T01:51:08.445Z,1013.43
2018-08-28T01:52:08.385Z,1013.47
2018-08-28T01:53:08.353Z,1013.46
2018-08-28T01:54:08.323Z,1013.47
2018-08-28T01:55:08.276Z,1013.46
2018-08-28T01:56:08.262Z,1013.46
2018-08-28T01:57:08.199Z,1013.47
2018-08-28T01:58:08.154Z,1013.47
2018-08-28T01:59:08.118Z,1013.45
2018-08-28T02:00:08.082Z,1013.45
2018-08-28T02:01:08.080Z,1013.45
2018-08-28T02:02:08.002Z,1013.47
2018-08-28T02:03:07.964Z,1013.47
2018-08-28T02:04:07.923Z,1013.46
2018-08-28T02:05:07.885Z,1013.47
2018-08-28T02:06:07.856Z,1013.51
2018-08-28T02:07:07.834Z,1013.47
2018-08-28T02:08:07.778Z,1013.48
2018-08-28T02:09:07.737Z,1013.49
2018-08-28T02:10:07.691Z,1013.47
2018-08-28T02:11:07.652Z,1013.49
2018-08-28T02:12:07.639Z,1013.48
2018-08-28T02:13:07.582Z,1013.48
2018-08-28T02:14:07.543Z,1013.51
2018-08-28T02:15:07.509Z,1013.54
2018-08-28T02:16:07.459Z,1013.51
2018-08-28T02:17:07.442Z,1013.55
2018-08-28T02:18:07.388Z,1013.54
2018-08-28T02:19:07.352Z,1013.51
2018-08-28T02:20:07.310Z,1013.52
2018-08-28T02:21:07.274Z,1013.53
2018-08-28T02:22:07.254Z,1013.55
2018-08-28T02:23:07.188Z,1013.53
2018-08-28T02:24:07.155Z,1013.52
2018-08-28T02:25:07.118Z,1013.56
2018-08-28T02:26:07.072Z,1013.57
2018-08-28T02:27:07.036Z,1013.51
2018-08-28T02:28:07.019Z,1013.56
2018-08-28T02:29:06.959Z,1013.54
2018-08-28T02:30:06.927Z,1013.56
2018-08-28T02:31:06.890Z,1013.55
2018-08-28T02:32:06.842Z,1013.56
2018-08-28T02:33:06.825Z,1013.56
2018-08-28T02:34:06.775Z,1013.56
2018-08-28T02:35:06.730Z,1013.54
2018-08-28T02:36:06.690Z,1013.55
2018-08-28T02:37:06.656Z,1013.57
2018-08-28T02:38:06.634Z,1013.54
2018-08-28T02:39:06.571Z,1013.54
2018-08-28T02:40:06.529Z,1013.52
2018-08-28T02:41:06.493Z,1013.57
2018-08-28T02:42:06.459Z,1013.54
2018-08-28T02:43:06.443Z,1013.55
2018-08-28T02:44:06.391Z,1013.53
2018-08-28T02:45:06.343Z,1013.50
2018-08-28T02:46:06.301Z,1013.52
2018-08-28T02:47:06.261Z,1013.53
2018-08-28T02:48:06.249Z,1013.52
2018-08-28T02:49:06.188Z,1013.50
2018-08-28T02:50:06.147Z,1013.47
2018-08-28T02:51:06.107Z,1013.53
2018-08-28T02:52:06.064Z,1013.53
2018-08-28T02:53:06.055Z,1013.50
2018-08-28T02:54:06.041Z,1013.51
2018-08-28T02:55:05.952Z,1013.51
2018-08-28T02:56:05.940Z,1013.56
2018-08-28T02:57:05.881Z,1013.49
2018-08-28T02:58:05.828Z,1013.49
2018-08-28T02:59:05.813Z,1013.54
2018-08-28T03:00:05.753Z,1013.50
2018-08-28T03:01:05.715Z,1013.52
2018-08-28T03:02:05.682Z,1013.58
2018-08-28T03:03:05.740Z,1013.57
2018-08-28T03:04:05.618Z,1013.56
2018-08-28T03:05:05.557Z,1013.57
2018-08-28T03:06:05.524Z,1013.58
2018-08-28T03:07:05.485Z,1013.59
2018-08-28T03:08:05.445Z,1013.58
2018-08-28T03:09:05.427Z,1013.60
2018-08-28T03:10:05.362Z,1013.55
2018-08-28T03:11:05.323Z,1013.58
2018-08-28T03:12:15.613Z,1013.54
2018-08-28T03:13:05.251Z,1013.57
2018-08-28T03:14:05.237Z,1013.59
2018-08-28T03:15:05.172Z,1013.59
2018-08-28T03:16:05.205Z,1013.57
2018-08-28T03:17:05.088Z,1013.58
2018-08-28T03:18:05.049Z,1013.57
2018-08-28T03:19:05.017Z,1013.59
2018-08-28T03:20:04.989Z,1013.58
2018-08-28T03:21:04.927Z,1013.61
2018-08-28T03:22:04.892Z,1013.58
2018-08-28T03:23:04.851Z,1013.57
2018-08-28T03:24:04.818Z,1013.59
2018-08-28T03:25:04.800Z,1013.60
2018-08-28T03:26:04.739Z,1013.59
2018-08-28T03:27:04.700Z,1013.62
2018-08-28T03:28:04.657Z,1013.62
2018-08-28T03:29:04.685Z,1013.63
2018-08-28T03:30:04.604Z,1013.64
2018-08-28T03:31:04.546Z,1013.62
2018-08-28T03:32:04.505Z,1013.61
2018-08-28T03:33:04.463Z,1013.61
2018-08-28T03:34:04.422Z,1013.63
2018-08-28T03:35:04.378Z,1013.62
2018-08-28T03:36:04.371Z,1013.65
2018-08-28T03:37:04.309Z,1013.64
2018-08-28T03:38:04.270Z,1013.64
2018-08-28T03:39:04.227Z,1013.61
2018-08-28T03:40:04.180Z,1013.65
2018-08-28T03:41:04.167Z,1013.66
2018-08-28T03:42:04.101Z,1013.67
2018-08-28T03:43:04.066Z,1013.65
2018-08-28T03:44:04.033Z,1013.67
2018-08-28T03:45:03.992Z,1013.66
2018-08-28T03:46:03.975Z,1013.67
2018-08-28T03:47:03.914Z,1013.65
2018-08-28T03:48:03.866Z,1013.68
2018-08-28T03:49:03.824Z,1013.72
2018-08-28T03:50:03.796Z,1013.77
2018-08-28T03:51:03.782Z,1013.76
2018-08-28T03:52:03.708Z,1013.75
2018-08-28T03:53:03.677Z,1013.77
2018-08-28T03:54:03.626Z,1013.76
2018-08-28T03:55:03.586Z,1013.77
2018-08-28T03:56:03.557Z,1013.80
2018-08-28T03:57:03.538Z,1013.83
2018-08-28T03:58:03.476Z,1013.79
2018-08-28T03:59:03.437Z,1013.77
2018-08-28T04:00:03.391Z,1013.84
2018-08-28T04:01:03.384Z,1013.79
2018-08-28T04:02:03.312Z,1013.80
2018-08-28T04:03:03.272Z,1013.80
2018-08-28T04:04:03.237Z,1013.80
2018-08-28T04:05:03.200Z,1013.83
2018-08-28T04:06:03.151Z,1013.84
2018-08-28T04:07:03.134Z,1013.81
2018-08-28T04:08:03.082Z,1013.85
2018-08-28T04:09:03.038Z,1013.85
2018-08-28T04:10:03.001Z,1013.82
2018-08-28T04:11:02.960Z,1013.84
2018-08-28T04:12:02.949Z,1013.84
2018-08-28T04:13:02.902Z,1013.78
2018-08-28T04:14:02.834Z,1013.81
2018-08-28T04:15:02.802Z,1013.80
2018-08-28T04:16:02.764Z,1013.82
2018-08-28T04:17:02.808Z,1013.82
2018-08-28T04:18:02.682Z,1013.83
2018-08-28T04:19:02.645Z,1013.82
2018-08-28T04:20:02.595Z,1013.83
2018-08-28T04:21:02.558Z,1013.83
2018-08-28T04:22:02.541Z,1013.86
2018-08-28T04:23:02.484Z,1013.86
2018-08-28T04:24:02.437Z,1013.89
2018-08-28T04:25:02.398Z,1013.87
2018-08-28T04:26:02.356Z,1013.85
2018-08-28T04:27:02.344Z,1013.87
2018-08-28T04:28:02.281Z,1013.87
2018-08-28T04:29:02.242Z,1013.87
2018-08-28T04:30:02.208Z,1013.87
2018-08-28T04:31:02.285Z,1013.88
2018-08-28T04:32:02.174Z,1013.87
2018-08-28T04:33:02.100Z,1013.87
2018-08-28T04:34:02.039Z,1013.88
2018-08-28T04:35:01.999Z,1013.87
2018-08-28T04:36:01.968Z,1013.91
2018-08-28T04:37:01.925Z,1013.90
2018-08-28T04:38:01.904Z,1013.89
2018-08-28T04:39:01.837Z,1013.89
2018-08-28T04:40:01.805Z,1013.92
2018-08-28T04:41:01.772Z,1013.89
2018-08-28T04:42:01.744Z,1013.89
2018-08-28T04:43:01.707Z,1013.92
2018-08-28T04:44:01.637Z,1013.89
2018-08-28T04:45:01.599Z,1013.92
2018-08-28T04:46:01.560Z,1013.91
2018-08-28T04:47:01.518Z,1013.94
2018-08-28T04:48:01.514Z,1013.98
2018-08-28T04:49:01.651Z,1013.99
2018-08-28T04:50:01.407Z,1014.04
2018-08-28T04:51:01.364Z,1014.07
2018-08-28T04:52:01.317Z,1014.06
2018-08-28T04:53:01.309Z,1014.04
2018-08-28T04:54:01.255Z,1014.07
2018-08-28T04:55:01.336Z,1014.05
2018-08-28T04:56:01.158Z,1014.05
2018-08-28T04:57:01.117Z,1014.10
2018-08-28T04:58:01.077Z,1014.07
2018-08-28T04:59:01.062Z,1014.08
2018-08-28T05:00:01.006Z,1014.09
2018-08-28T05:01:00.970Z,1014.08
2018-08-28T05:02:00.928Z,1014.08
2018-08-28T05:03:00.908Z,1014.07
2018-08-28T05:04:00.838Z,1014.10
2018-08-28T05:05:00.799Z,1014.09
2018-08-28T05:06:00.758Z,1014.11
2018-08-28T05:07:00.720Z,1014.12
2018-08-28T05:08:00.713Z,1014.15
2018-08-28T05:09:00.651Z,1014.17
2018-08-28T05:10:00.598Z,1014.15
2018-08-28T05:11:00.560Z,1014.21
2018-08-28T05:12:00.525Z,1014.16
2018-08-28T05:13:00.486Z,1014.17
2018-08-28T05:14:00.468Z,1014.16
2018-08-28T05:15:00.408Z,1014.15
2018-08-28T05:16:00.505Z,1014.13
2018-08-28T05:17:00.317Z,1014.17
2018-08-28T05:18:00.280Z,1014.19
2018-08-28T05:19:00.266Z,1014.23
2018-08-28T05:20:00.205Z,1014.24
2018-08-28T05:21:00.166Z,1014.25
2018-08-28T05:22:00.170Z,1014.27
2018-08-28T05:23:00.088Z,1014.26
2018-08-28T05:24:00.041Z,1014.24
2018-08-28T05:25:00.022Z,1014.29
2018-08-28T05:25:59.969Z,1014.28
2018-08-28T05:26:59.927Z,1014.29
2018-08-28T05:27:59.887Z,1014.30
2018-08-28T05:28:59.842Z,1014.34
2018-08-28T05:29:59.821Z,1014.34
2018-08-28T05:30:59.762Z,1014.36
2018-08-28T05:31:59.732Z,1014.38
2018-08-28T05:32:59.695Z,1014.41
2018-08-28T05:33:59.650Z,1014.39
2018-08-28T05:34:59.640Z,1014.46
2018-08-28T05:35:59.565Z,1014.46
2018-08-28T05:36:59.526Z,1014.43
2018-08-28T05:37:59.490Z,1014.45
2018-08-28T05:38:59.447Z,1014.43
2018-08-28T05:39:59.415Z,1014.42
2018-08-28T05:40:59.394Z,1014.48
2018-08-28T05:41:59.329Z,1014.47
2018-08-28T05:42:59.291Z,1014.47
2018-08-28T05:43:59.257Z,1014.48
2018-08-28T05:44:59.215Z,1014.53
2018-08-28T05:45:59.201Z,1014.54
2018-08-28T05:46:59.139Z,1014.55
2018-08-28T05:47:59.094Z,1014.56
2018-08-28T05:48:59.059Z,1014.62
2018-08-28T05:49:59.019Z,1014.64
2018-08-28T05:50:59.006Z,1014.64
2018-08-28T05:51:58.949Z,1014.62
2018-08-28T05:52:58.909Z,1014.66
2018-08-28T05:53:58.869Z,1014.69
2018-08-28T05:54:58.895Z,1014.65
2018-08-28T05:55:58.872Z,1014.72
2018-08-28T05:56:58.754Z,1014.70
2018-08-28T05:57:58.726Z,1014.69
2018-08-28T05:58:58.687Z,1014.73
2018-08-28T05:59:58.643Z,1014.69
2018-08-28T06:00:58.604Z,1014.74
2018-08-28T06:01:58.600Z,1014.76
2018-08-28T06:02:58.577Z,1014.75
2018-08-28T06:03:58.499Z,1014.79
2018-08-28T06:04:58.464Z,1014.81
2018-08-28T06:05:58.443Z,1014.83
2018-08-28T06:06:58.414Z,1014.81
2018-08-28T06:07:58.349Z,1014.81
2018-08-28T06:08:58.374Z,1014.81
2018-08-28T06:09:58.280Z,1014.86
2018-08-28T06:10:58.245Z,1014.85
2018-08-28T06:11:58.234Z,1014.91
2018-08-28T06:12:58.180Z,1014.90
2018-08-28T06:13:58.134Z,1014.91
2018-08-28T06:14:58.101Z,1014.91
2018-08-28T06:15:58.072Z,1014.92
2018-08-28T06:16:58.059Z,1014.95
2018-08-28T06:17:58.021Z,1014.96
2018-08-28T06:18:57.968Z,1014.98
2018-08-28T06:19:57.926Z,1015.01
2018-08-28T06:20:57.891Z,1015.02
2018-08-28T06:21:57.882Z,1015.05
2018-08-28T06:22:57.828Z,1015.09
2018-08-28T06:23:57.792Z,1015.12
2018-08-28T06:24:57.757Z,1015.11
2018-08-28T06:25:57.724Z,1015.15
2018-08-28T06:26:57.690Z,1015.18
2018-08-28T06:27:57.666Z,1015.20
2018-08-28T06:28:57.613Z,1015.25
2018-08-28T06:29:57.591Z,1015.28
2018-08-28T06:30:57.553Z,1015.32
2018-08-28T06:31:57.513Z,1015.31
2018-08-28T06:32:57.503Z,1015.33
2018-08-28T06:33:57.476Z,1015.25
2018-08-28T06:34:57.410Z,1015.28
2018-08-28T06:35:57.382Z,1015.32
2018-08-28T06:36:57.346Z,1015.36
2018-08-28T06:37:57.317Z,1015.33
2018-08-28T06:38:57.301Z,1015.35
2018-08-28T06:39:57.236Z,1015.37
2018-08-28T06:40:57.203Z,1015.40
2018-08-28T06:41:57.173Z,1015.37
2018-08-28T06:42:57.142Z,1015.45
2018-08-28T06:43:57.145Z,1015.42
2018-08-28T06:44:57.079Z,1015.40
2018-08-28T06:45:57.039Z,1015.42
2018-08-28T06:47:07.206Z,1015.41
2018-08-28T06:47:56.976Z,1015.47
2018-08-28T06:48:56.961Z,1015.51
2018-08-28T06:49:56.900Z,1015.62
2018-08-28T06:50:56.868Z,1015.72
2018-08-28T06:51:56.833Z,1015.80
2018-08-28T06:52:56.802Z,1015.92
2018-08-28T06:53:56.801Z,1015.97
2018-08-28T06:54:56.740Z,1015.90
2018-08-28T06:55:56.710Z,1015.88
2018-08-28T06:56:56.705Z,1015.88
2018-08-28T06:57:56.634Z,1015.85
2018-08-28T06:58:56.604Z,1015.84
2018-08-28T06:59:56.598Z,1015.80
2018-08-28T07:00:56.546Z,1015.83
2018-08-28T07:01:56.503Z,1015.84
2018-08-28T07:03:05.736Z,1015.85
2018-08-28T07:03:56.465Z,1015.83
2018-08-28T07:04:56.445Z,1015.86
2018-08-28T07:05:56.433Z,1015.83
2018-08-28T07:06:56.348Z,1015.83
2018-08-28T07:07:56.335Z,1015.86
2018-08-28T07:08:56.272Z,1015.80
2018-08-28T07:09:56.242Z,1015.85
2018-08-28T07:10:56.231Z,1015.87
2018-08-28T07:11:56.183Z,1015.91
2018-08-28T07:12:56.150Z,1015.92
2018-08-28T07:13:56.109Z,1015.95
2018-08-28T07:14:56.078Z,1015.95
2018-08-28T07:15:56.084Z,1015.98
2018-08-28T07:16:56.022Z,1015.97
2018-08-28T07:17:55.988Z,1016.02
2018-08-28T07:18:55.958Z,1016.07
2018-08-28T07:19:55.929Z,1016.09
2018-08-28T07:20:55.904Z,1016.13
2018-08-28T07:21:55.849Z,1016.18
2018-08-28T07:22:55.852Z,1016.27
2018-08-28T07:23:55.794Z,1016.31
2018-08-28T07:24:55.756Z,1016.34
2018-08-28T07:25:55.773Z,1016.43
2018-08-28T07:26:55.703Z,1016.53
2018-08-28T07:27:55.663Z,1016.56
2018-08-28T07:28:55.630Z,1016.68
2018-08-28T07:29:55.605Z,1016.76
2018-08-28T07:30:55.573Z,1016.81
2018-08-28T07:31:55.632Z,1016.96
2018-08-28T07:32:55.498Z,1017.01
2018-08-28T07:33:55.468Z,1017.13
2018-08-28T07:34:55.439Z,1017.07
2018-08-28T07:35:55.410Z,1016.94
2018-08-28T07:36:55.400Z,1016.80
2018-08-28T07:37:55.347Z,1016.69
2018-08-28T07:38:55.317Z,1016.62
2018-08-28T07:39:55.275Z,1016.56
2018-08-28T07:40:55.247Z,1016.53
2018-08-28T07:41:55.236Z,1016.49
2018-08-28T07:42:55.210Z,1016.39
2018-08-28T07:43:55.157Z,1016.38
2018-08-28T07:44:55.130Z,1016.38
2018-08-28T07:45:55.092Z,1016.23
2018-08-28T07:46:55.057Z,1016.23
2018-08-28T07:47:55.056Z,1016.27
2018-08-28T07:48:55.002Z,1016.25
2018-08-28T07:49:54.970Z,1016.30
2018-08-28T07:50:54.941Z,1016.25
2018-08-28T07:51:54.906Z,1016.26
2018-08-28T07:52:54.895Z,1016.23
2018-08-28T07:53:54.904Z,1016.27
2018-08-28T07:54:54.807Z,1016.20
2018-08-28T07:56:05.804Z,1016.19
2018-08-28T07:56:54.751Z,1016.22
2018-08-28T07:57:54.734Z,1016.28
2018-08-28T07:58:54.678Z,1016.23
2018-08-28T07:59:54.657Z,1016.27
2018-08-28T08:00:54.625Z,1016.23
2018-08-28T08:01:54.587Z,1016.20
2018-08-28T08:02:54.583Z,1016.21
2018-08-28T08:03:54.520Z,1016.19
2018-08-28T08:04:54.494Z,1016.25
2018-08-28T08:05:54.466Z,1016.23
2018-08-28T08:06:54.440Z,1016.23
2018-08-28T08:07:54.407Z,1016.27
2018-08-28T08:08:54.400Z,1016.22
2018-08-28T08:09:54.335Z,1016.26
2018-08-28T08:10:54.305Z,1016.23
2018-08-28T08:11:54.271Z,1016.22
2018-08-28T08:12:54.243Z,1016.24
2018-08-28T08:13:54.241Z,1016.27
2018-08-28T08:14:54.202Z,1016.28
2018-08-28T08:16:02.419Z,1016.30
2018-08-28T08:16:54.127Z,1016.29
2018-08-28T08:17:54.096Z,1016.29
2018-08-28T08:18:54.092Z,1016.32
2018-08-28T08:19:54.025Z,1016.28
2018-08-28T08:20:53.994Z,1016.39
2018-08-28T08:21:53.963Z,1016.36
2018-08-28T08:22:53.941Z,1016.34
2018-08-28T08:23:53.931Z,1016.07
2018-08-28T08:24:53.875Z,1016.35
2018-08-28T08:25:53.848Z,1016.31
2018-08-28T08:26:53.818Z,1016.36
2018-08-28T08:27:53.831Z,1016.34
2018-08-28T08:28:53.771Z,1016.37
2018-08-28T08:29:53.721Z,1016.37
2018-08-28T08:30:53.694Z,1016.38
2018-08-28T08:31:53.654Z,1016.08
2018-08-28T08:32:53.624Z,1016.24
2018-08-28T08:33:53.615Z,1016.25
2018-08-28T08:35:02.893Z,1016.35
2018-08-28T08:35:53.541Z,1016.36
2018-08-28T08:36:53.508Z,1016.36
2018-08-28T08:37:53.470Z,1016.42
2018-08-28T08:38:53.468Z,1016.44
2018-08-28T08:39:53.412Z,1015.95
2018-08-28T08:40:53.383Z,1015.86
2018-08-28T08:41:53.437Z,1016.42
2018-08-28T08:42:53.326Z,1016.14
2018-08-28T08:43:53.285Z,1015.88
2018-08-28T08:44:53.281Z,1016.30
2018-08-28T08:45:53.230Z,1015.85
2018-08-28T08:46:53.206Z,1015.73
2018-08-28T08:47:53.166Z,1015.82
2018-08-28T08:48:53.140Z,1016.29
2018-08-28T08:49:53.124Z,1015.94
2018-08-28T08:50:53.073Z,1016.33
2018-08-28T08:51:53.048Z,1016.36
2018-08-28T08:52:53.005Z,1016.39
2018-08-28T08:54:03.437Z,1016.33
2018-08-28T08:54:53.024Z,1016.13
2018-08-28T08:55:52.914Z,1016.40
2018-08-28T08:56:52.882Z,1016.30
2018-08-28T08:57:52.859Z,1015.81
2018-08-28T08:58:52.834Z,1015.81
2018-08-28T08:59:52.817Z,1015.72
2018-08-28T09:00:52.760Z,1015.94
2018-08-28T09:01:52.731Z,1016.37
2018-08-28T09:02:52.708Z,1016.20
2018-08-28T09:03:52.683Z,1015.71
2018-08-28T09:04:52.642Z,1015.73
2018-08-28T09:05:52.682Z,1015.81
2018-08-28T09:06:52.579Z,1015.75
2018-08-28T09:07:52.544Z,1016.11
2018-08-28T09:08:52.514Z,1016.20
2018-08-28T09:09:52.482Z,1016.22
2018-08-28T09:10:52.472Z,1016.32
2018-08-28T09:11:52.428Z,1016.19
2018-08-28T09:12:52.397Z,1016.25
2018-08-28T09:13:52.357Z,1016.25
2018-08-28T09:14:52.326Z,1015.71
2018-08-28T09:15:52.330Z,1015.70
2018-08-28T09:16:52.273Z,1015.61
2018-08-28T09:17:52.249Z,1015.91
2018-08-28T09:18:52.208Z,1015.97
2018-08-28T09:19:52.170Z,1016.18
2018-08-28T09:20:52.137Z,1016.11
2018-08-28T09:21:52.130Z,1015.64
2018-08-28T09:22:52.100Z,1015.56
2018-08-28T09:23:52.053Z,1015.56
2018-08-28T09:24:52.021Z,1015.62
2018-08-28T09:25:51.991Z,1015.58
2018-08-28T09:26:51.986Z,1015.53
2018-08-28T09:27:51.960Z,1015.55
2018-08-28T09:28:51.889Z,1015.55
2018-08-28T09:29:51.864Z,1015.53
2018-08-28T09:30:51.832Z,1016.03
2018-08-28T09:31:51.811Z,1016.06
2018-08-28T09:32:51.760Z,1016.02
2018-08-28T09:33:51.730Z,1016.09
2018-08-28T09:34:51.699Z,1016.06
2018-08-28T09:35:51.668Z,1016.08
2018-08-28T09:36:51.662Z,1016.01
2018-08-28T09:37:51.608Z,1016.04
2018-08-28T09:38:51.620Z,1015.97
2018-08-28T09:39:51.537Z,1015.91
2018-08-28T09:40:51.510Z,1015.94
2018-08-28T09:41:51.498Z,1015.96
2018-08-28T09:42:51.445Z,1015.93
2018-08-28T09:43:51.486Z,1015.95
2018-08-28T09:44:51.400Z,1015.93
2018-08-28T09:45:51.352Z,1015.92
2018-08-28T09:46:51.338Z,1015.92
2018-08-28T09:47:51.323Z,1015.94
2018-08-28T09:48:51.267Z,1015.98
2018-08-28T09:49:51.300Z,1015.45
2018-08-28T09:50:51.259Z,1015.47
2018-08-28T09:51:51.197Z,1015.43
2018-08-28T09:52:51.136Z,1015.68
2018-08-28T09:53:51.109Z,1015.90
2018-08-28T09:54:51.083Z,1015.95
2018-08-28T09:55:51.052Z,1015.84
2018-08-28T09:56:51.024Z,1015.79
2018-08-28T09:57:51.014Z,1015.94
2018-08-28T09:58:50.961Z,1015.86
2018-08-28T09:59:50.927Z,1015.49
2018-08-28T10:00:50.895Z,1015.36
2018-08-28T10:01:50.876Z,1015.64
2018-08-28T10:02:50.870Z,1015.89
2018-08-28T10:03:50.806Z,1015.95
2018-08-28T10:04:50.892Z,1015.93
2018-08-28T10:05:50.748Z,1015.79
2018-08-28T10:06:50.723Z,1016.00
2018-08-28T10:07:50.753Z,1015.97
2018-08-28T10:08:50.666Z,1015.95
2018-08-28T10:09:50.637Z,1015.39
2018-08-28T10:10:50.665Z,1015.45
2018-08-28T10:11:50.566Z,1015.63
2018-08-28T10:12:58.096Z,1015.45
2018-08-28T10:13:50.523Z,1015.62
2018-08-28T10:14:50.487Z,1015.97
2018-08-28T10:15:50.448Z,1015.52
2018-08-28T10:16:50.421Z,1015.48
2018-08-28T10:17:50.398Z,1015.80
2018-08-28T10:18:50.388Z,1015.78
2018-08-28T10:19:50.337Z,1015.71
2018-08-28T10:20:50.311Z,1015.75
2018-08-28T10:21:50.274Z,1015.75
2018-08-28T10:22:50.259Z,1015.74
2018-08-28T10:23:50.239Z,1015.71
2018-08-28T10:24:50.187Z,1015.71
2018-08-28T10:25:50.168Z,1015.67
2018-08-28T10:26:50.139Z,1015.36
2018-08-28T10:27:50.109Z,1015.19
2018-08-28T10:28:50.103Z,1015.22
2018-08-28T10:29:50.084Z,1015.16
2018-08-28T10:30:50.022Z,1015.21
2018-08-28T10:31:49.992Z,1015.24
2018-08-28T10:32:49.976Z,1015.18
2018-08-28T10:33:49.952Z,1015.19
2018-08-28T10:34:49.900Z,1015.22
2018-08-28T10:35:49.870Z,1015.19
2018-08-28T10:36:49.839Z,1015.22
2018-08-28T10:37:49.816Z,1015.62
2018-08-28T10:38:49.808Z,1015.58
2018-08-28T10:39:49.756Z,1015.57
2018-08-28T10:40:49.721Z,1015.55
2018-08-28T10:41:49.695Z,1015.46
2018-08-28T10:42:49.662Z,1015.41
2018-08-28T10:43:49.660Z,1015.47
2018-08-28T10:44:49.602Z,1015.49
2018-08-28T10:45:49.569Z,1015.47
2018-08-28T10:46:49.710Z,1015.46
2018-08-28T10:47:49.515Z,1015.44
2018-08-28T10:48:49.486Z,1015.47
2018-08-28T10:49:49.470Z,1015.51
2018-08-28T10:50:49.420Z,1015.47
2018-08-28T10:51:49.393Z,1015.45
2018-08-28T10:53:00.607Z,1015.42
2018-08-28T10:53:49.339Z,1015.40
2018-08-28T10:54:49.336Z,1015.34
2018-08-28T10:55:49.280Z,1014.98
2018-08-28T10:56:49.251Z,1014.97
2018-08-28T10:57:49.221Z,1015.00
2018-08-28T10:58:49.224Z,1014.93
2018-08-28T10:59:49.196Z,1015.11
2018-08-28T11:00:49.143Z,1014.96
2018-08-28T11:01:49.109Z,1015.02
2018-08-28T11:02:49.080Z,1015.02
2018-08-28T11:03:49.062Z,1015.01
2018-08-28T11:04:49.050Z,1015.03
2018-08-28T11:05:49.000Z,1015.09
2018-08-28T11:06:48.972Z,1015.11
2018-08-28T11:07:48.934Z,1014.99
2018-08-28T11:08:48.934Z,1015.33
2018-08-28T11:09:48.898Z,1015.04
2018-08-28T11:10:48.848Z,1015.09
2018-08-28T11:11:48.831Z,1015.47
2018-08-28T11:12:48.790Z,1015.05
2018-08-28T11:13:48.763Z,1015.18
2018-08-28T11:14:48.753Z,1014.97
2018-08-28T11:15:48.693Z,1014.99
2018-08-28T11:16:48.670Z,1014.97
2018-08-28T11:17:48.638Z,1014.93
2018-08-28T11:18:48.614Z,1014.91
2018-08-28T11:19:48.595Z,1014.82
2018-08-28T11:20:48.544Z,1014.88
2018-08-28T11:21:48.509Z,1014.86
2018-08-28T11:22:48.530Z,1014.88
2018-08-28T11:23:48.455Z,1014.88
2018-08-28T11:24:48.443Z,1014.86
2018-08-28T11:25:48.393Z,1014.84
2018-08-28T11:26:48.370Z,1014.82
2018-08-28T11:27:48.320Z,1014.84
2018-08-28T11:28:48.292Z,1015.01
2018-08-28T11:29:48.282Z,1014.94
2018-08-28T11:30:48.227Z,1014.96
2018-08-28T11:31:48.203Z,1015.14
2018-08-28T11:32:48.171Z,1015.31
2018-08-28T11:33:48.133Z,1015.33
2018-08-28T11:34:48.131Z,1015.32
2018-08-28T11:35:48.095Z,1015.04
2018-08-28T11:36:48.045Z,1015.02
2018-08-28T11:37:48.015Z,1015.01
2018-08-28T11:38:47.982Z,1015.05
2018-08-28T11:39:47.944Z,1015.15
2018-08-28T11:40:47.933Z,1014.96
2018-08-28T11:41:47.883Z,1014.86
2018-08-28T11:42:47.851Z,1014.82
2018-08-28T11:43:47.829Z,1014.77
2018-08-28T11:44:47.797Z,1014.77
2018-08-28T11:45:47.784Z,1014.69
2018-08-28T11:46:47.737Z,1014.70
2018-08-28T11:47:47.695Z,1014.75
2018-08-28T11:48:47.668Z,1014.74
2018-08-28T11:49:47.638Z,1014.79
2018-08-28T11:50:47.629Z,1015.21
2018-08-28T11:51:47.570Z,1014.87
2018-08-28T11:52:47.552Z,1015.13
2018-08-28T11:53:47.505Z,1014.85
2018-08-28T11:54:47.470Z,1014.83
2018-08-28T11:55:47.448Z,1014.85
2018-08-28T11:56:47.437Z,1015.06
2018-08-28T11:57:47.382Z,1014.93
2018-08-28T11:58:47.353Z,1014.82
2018-08-28T11:59:47.313Z,1014.76
2018-08-28T12:00:47.282Z,1014.74
2018-08-28T12:01:47.273Z,1014.85
2018-08-28T12:02:47.217Z,1014.80
2018-08-28T12:03:47.192Z,1014.79
2018-08-28T12:04:47.172Z,1014.80